createdAt,value
2023-02-02T00:02:18.577Z,84.33
2023-02-02T00:04:55.862Z,86.97
2023-02-02T00:07:31.812Z,83.47
2023-02-02T00:10:09.534Z,74.77
2023-02-02T00:13:26.215Z,81.77
2023-02-02T00:16:01.274Z,78.03
2023-02-02T00:18:36.885Z,77.83
2023-02-02T00:21:15.454Z,70.37
2023-02-02T00:23:50.982Z,67.50
2023-02-02T00:26:28.295Z,66.70
2023-02-02T00:29:03.741Z,72.70
2023-02-02T00:31:41.463Z,78.80
2023-02-02T00:34:21.741Z,68.73
2023-02-02T00:37:01.473Z,75.73
2023-02-02T00:39:36.017Z,72.53
2023-02-02T00:42:11.894Z,71.67
2023-02-02T00:45:02.915Z,69.47
2023-02-02T00:47:50.193Z,69.67
2023-02-02T00:50:27.208Z,69.87
2023-02-02T00:53:02.853Z,76.93
2023-02-02T00:55:38.100Z,74.97
2023-02-02T00:58:13.838Z,74.37
2023-02-02T01:00:49.896Z,66.97
2023-02-02T01:03:26.031Z,71.93
2023-02-02T01:06:02.237Z,73.00
2023-02-02T01:09:05.748Z,76.47
2023-02-02T01:11:43.379Z,71.63
2023-02-02T01:14:18.839Z,79.20
2023-02-02T01:16:54.295Z,82.83
2023-02-02T01:19:29.847Z,74.70
2023-02-02T01:22:05.933Z,71.97
2023-02-02T01:25:24.516Z,77.13
2023-02-02T01:28:03.243Z,75.77
2023-02-02T01:30:39.504Z,74.37
2023-02-02T01:33:15.754Z,85.37
2023-02-02T01:35:57.022Z,77.33
2023-02-02T01:38:31.856Z,77.57
2023-02-02T01:41:41.407Z,73.83
2023-02-02T01:44:55.387Z,80.53
2023-02-02T01:47:40.017Z,77.30
2023-02-02T01:50:17.643Z,81.00
2023-02-02T01:52:56.475Z,77.10
2023-02-02T01:55:34.712Z,82.47
2023-02-02T01:58:16.159Z,81.20
2023-02-02T02:00:52.663Z,83.77
2023-02-02T02:03:35.876Z,75.93
2023-02-02T02:06:25.206Z,85.97
2023-02-02T02:09:04.959Z,85.43
2023-02-02T02:11:42.903Z,85.77
2023-02-02T02:14:41.274Z,77.13
2023-02-02T02:17:37.491Z,82.27
2023-02-02T02:21:14.177Z,78.57
2023-02-02T02:24:54.116Z,73.17
2023-02-02T02:28:15.427Z,75.50
2023-02-02T02:31:28.302Z,71.60
2023-02-02T02:34:12.704Z,74.67
2023-02-02T02:36:55.518Z,71.90
2023-02-02T02:39:38.564Z,70.73
2023-02-02T02:42:18.965Z,72.30
2023-02-02T02:45:01.071Z,81.37
2023-02-02T02:47:40.248Z,68.80
2023-02-02T02:50:25.188Z,68.17
2023-02-02T02:53:09.164Z,76.53
2023-02-02T02:55:54.703Z,71.70
2023-02-02T02:58:41.151Z,66.30
2023-02-02T03:01:25.955Z,62.27
2023-02-02T03:04:15.999Z,75.03
2023-02-02T03:07:02.967Z,64.03
2023-02-02T03:09:48.786Z,63.93
2023-02-02T03:12:28.119Z,64.97
2023-02-02T03:15:06.251Z,60.17
2023-02-02T03:17:44.056Z,69.60
2023-02-02T03:20:23.289Z,67.33
2023-02-02T03:23:02.197Z,69.37
2023-02-02T03:25:40.492Z,69.70
2023-02-02T03:28:20.043Z,67.23
2023-02-02T03:31:02.245Z,72.00
2023-02-02T03:33:47.730Z,68.03
2023-02-02T03:36:30.622Z,68.63
2023-02-02T03:39:11.819Z,70.87
2023-02-02T03:41:51.469Z,72.27
2023-02-02T03:44:27.935Z,67.20
2023-02-02T03:47:03.933Z,63.00
2023-02-02T03:49:41.975Z,60.63
2023-02-02T03:52:22.277Z,65.47
2023-02-02T03:54:59.919Z,64.83
2023-02-02T03:57:35.997Z,66.73
2023-02-02T04:00:14.590Z,68.00
2023-02-02T04:03:00.216Z,63.70
2023-02-02T04:05:37.712Z,60.90
2023-02-02T04:08:29.539Z,67.50
2023-02-02T04:11:10.915Z,62.47
2023-02-02T04:13:49.438Z,62.53
2023-02-02T04:16:29.180Z,65.07
2023-02-02T04:19:07.415Z,69.70
2023-02-02T04:21:50.175Z,66.57
2023-02-02T04:24:31.939Z,68.27
2023-02-02T04:27:15.045Z,76.93
2023-02-02T04:29:50.819Z,66.67
2023-02-02T04:32:31.090Z,70.57
2023-02-02T04:35:19.696Z,74.80
2023-02-02T04:38:17.776Z,74.37
2023-02-02T04:40:58.039Z,71.77
2023-02-02T04:43:35.943Z,69.17
2023-02-02T04:46:16.961Z,76.40
2023-02-02T04:48:55.498Z,73.77
2023-02-02T04:51:34.880Z,71.93
2023-02-02T04:54:13.106Z,66.13
2023-02-02T04:56:52.592Z,77.33
2023-02-02T04:59:33.889Z,72.03
2023-02-02T05:02:10.983Z,76.53
2023-02-02T05:04:56.707Z,71.30
2023-02-02T05:07:33.148Z,76.07
2023-02-02T05:10:11.800Z,73.23
2023-02-02T05:12:51.038Z,74.77
2023-02-02T05:15:32.287Z,74.50
2023-02-02T05:18:13.381Z,75.57
2023-02-02T05:20:50.594Z,73.90
2023-02-02T05:23:28.557Z,78.77
2023-02-02T05:26:09.773Z,78.20
2023-02-02T05:28:47.870Z,80.20
2023-02-02T05:31:30.865Z,77.53
2023-02-02T05:34:13.034Z,84.33
2023-02-02T05:36:55.768Z,81.33
2023-02-02T05:39:32.360Z,74.83
2023-02-02T05:42:08.725Z,75.23
2023-02-02T05:44:45.008Z,77.17
2023-02-02T05:47:30.950Z,80.13
2023-02-02T05:50:14.377Z,84.73
2023-02-02T05:52:54.734Z,80.20
2023-02-02T05:55:30.582Z,73.50
2023-02-02T05:58:07.197Z,83.63
2023-02-02T06:00:43.353Z,78.70
2023-02-02T06:03:30.247Z,79.77
2023-02-02T06:06:07.200Z,72.37
2023-02-02T06:08:43.818Z,80.77
2023-02-02T06:11:28.726Z,85.43
2023-02-02T06:14:09.419Z,77.03
2023-02-02T06:16:46.011Z,76.27
2023-02-02T06:19:26.709Z,81.23
2023-02-02T06:22:08.710Z,76.63
2023-02-02T06:24:44.763Z,76.80
2023-02-02T06:27:23.015Z,77.27
2023-02-02T06:30:19.619Z,70.13
2023-02-02T06:33:11.369Z,82.43
2023-02-02T06:35:51.847Z,81.03
2023-02-02T06:38:44.457Z,75.30
2023-02-02T06:41:23.305Z,75.50
2023-02-02T06:44:06.049Z,79.33
2023-02-02T06:46:43.044Z,75.50
2023-02-02T06:49:27.279Z,81.10
2023-02-02T06:52:08.034Z,73.30
2023-02-02T06:55:00.297Z,76.57
2023-02-02T06:57:44.195Z,67.57
2023-02-02T07:00:27.635Z,80.17
2023-02-02T07:03:06.974Z,82.30
2023-02-02T07:05:42.920Z,76.33
2023-02-02T07:08:23.655Z,81.47
2023-02-02T07:11:12.979Z,88.97
2023-02-02T07:13:53.433Z,82.83
2023-02-02T07:16:32.826Z,75.13
2023-02-02T07:19:10.070Z,80.23
2023-02-02T07:21:49.177Z,82.57
2023-02-02T07:24:29.310Z,76.13
2023-02-02T07:27:05.622Z,87.77
2023-02-02T07:29:42.199Z,79.73
2023-02-02T07:32:21.607Z,74.83
2023-02-02T07:34:58.175Z,74.40
2023-02-02T07:37:35.240Z,72.83
2023-02-02T07:40:25.851Z,83.37
2023-02-02T07:43:31.300Z,78.17
2023-02-02T07:46:15.531Z,80.40
2023-02-02T07:48:56.531Z,75.70
2023-02-02T07:51:39.899Z,83.83
2023-02-02T07:54:30.719Z,84.13
2023-02-02T07:57:14.733Z,75.70
2023-02-02T07:59:58.103Z,71.90
2023-02-02T08:02:39.259Z,87.10
2023-02-02T08:05:20.245Z,78.43
2023-02-02T08:07:56.855Z,83.13
2023-02-02T08:10:40.974Z,76.30
2023-02-02T08:13:29.740Z,77.60
2023-02-02T08:16:15.060Z,89.07
2023-02-02T08:18:51.603Z,78.80
2023-02-02T08:21:38.940Z,79.07
2023-02-02T08:24:15.875Z,81.60
2023-02-02T08:26:54.935Z,85.87
2023-02-02T08:29:34.916Z,79.40
2023-02-02T08:32:14.984Z,76.33
2023-02-02T08:34:56.203Z,82.40
2023-02-02T08:37:36.793Z,82.47
2023-02-02T08:40:14.764Z,83.43
2023-02-02T08:42:52.740Z,77.67
2023-02-02T08:46:03.049Z,73.30
2023-02-02T08:48:42.246Z,81.60
2023-02-02T08:51:21.311Z,77.87
2023-02-02T08:53:58.729Z,81.33
2023-02-02T08:56:42.429Z,76.37
2023-02-02T08:59:21.900Z,75.73
2023-02-02T09:02:01.376Z,70.57
2023-02-02T09:04:38.693Z,80.27
2023-02-02T09:07:16.552Z,79.07
2023-02-02T09:09:57.498Z,79.73
2023-02-02T09:12:34.215Z,73.73
2023-02-02T09:15:14.214Z,73.33
2023-02-02T09:17:59.746Z,72.00
2023-02-02T09:20:42.886Z,82.33
2023-02-02T09:23:22.834Z,71.03
2023-02-02T09:26:02.783Z,75.87
2023-02-02T09:28:41.081Z,80.17
2023-02-02T09:31:21.372Z,80.00
2023-02-02T09:34:05.906Z,80.77
2023-02-02T09:36:43.048Z,80.07
2023-02-02T09:39:21.239Z,76.73
2023-02-02T09:42:23.299Z,80.60
2023-02-02T09:45:16.565Z,79.20
2023-02-02T09:48:01.538Z,79.50
2023-02-02T09:51:00.673Z,79.20
2023-02-02T09:53:55.038Z,70.50
2023-02-02T09:56:38.379Z,72.00
2023-02-02T09:59:24.484Z,80.90
2023-02-02T10:02:05.960Z,78.53
2023-02-02T10:04:45.215Z,78.63
2023-02-02T10:07:32.253Z,84.13
2023-02-02T10:10:12.646Z,85.80
2023-02-02T10:13:01.284Z,85.20
2023-02-02T10:15:45.025Z,80.17
2023-02-02T10:18:29.093Z,82.33
2023-02-02T10:21:07.956Z,85.07
2023-02-02T10:23:51.671Z,87.63
2023-02-02T10:26:45.920Z,81.67
2023-02-02T10:29:30.884Z,82.30
2023-02-02T10:32:24.792Z,89.13
2023-02-02T10:35:39.385Z,85.90
2023-02-02T10:38:24.707Z,87.40
2023-02-02T10:41:11.347Z,91.90
2023-02-02T10:44:04.377Z,84.33
2023-02-02T10:46:46.973Z,89.23
2023-02-02T10:49:32.790Z,84.23
2023-02-02T10:52:22.293Z,86.93
2023-02-02T10:55:18.143Z,88.37
2023-02-02T10:58:13.061Z,94.67
2023-02-02T11:01:05.229Z,100.83
2023-02-02T11:04:18.025Z,88.47
2023-02-02T11:06:53.870Z,90.50
2023-02-02T11:09:38.611Z,97.87
2023-02-02T11:12:26.259Z,107.30
2023-02-02T11:15:16.810Z,97.43
2023-02-02T11:17:53.278Z,94.80
2023-02-02T11:20:40.313Z,112.23
2023-02-02T11:23:27.678Z,102.97
2023-02-02T11:26:14.512Z,93.13
2023-02-02T11:29:12.199Z,101.23
2023-02-02T11:32:25.820Z,116.60
2023-02-02T11:35:25.115Z,101.70
2023-02-02T11:38:39.317Z,106.97
2023-02-02T11:41:18.913Z,100.67
2023-02-02T11:44:05.153Z,93.73
2023-02-02T11:46:48.915Z,103.97
2023-02-02T11:49:29.677Z,94.50
2023-02-02T11:52:17.114Z,103.13
2023-02-02T11:54:56.489Z,105.43
2023-02-02T11:57:39.745Z,108.77
2023-02-02T12:00:31.493Z,103.10
2023-02-02T12:03:29.989Z,101.83
2023-02-02T12:06:26.155Z,102.77
2023-02-02T12:09:11.990Z,96.50
2023-02-02T12:11:59.145Z,99.47
2023-02-02T12:14:54.992Z,104.17
2023-02-02T12:17:50.522Z,107.07
2023-02-02T12:20:35.768Z,114.73
2023-02-02T12:23:36.496Z,106.23
2023-02-02T12:26:28.897Z,113.73
2023-02-02T12:29:37.343Z,105.00
2023-02-02T12:32:32.367Z,105.43
2023-02-02T12:35:41.355Z,112.67
2023-02-02T12:38:29.845Z,110.77
2023-02-02T12:41:31.227Z,110.07
2023-02-02T12:44:13.496Z,113.70
2023-02-02T12:47:04.485Z,104.03
2023-02-02T12:50:06.971Z,112.27
2023-02-02T12:52:58.782Z,119.37
2023-02-02T12:55:54.836Z,105.17
2023-02-02T12:58:44.626Z,112.80
2023-02-02T13:01:58.110Z,108.03
2023-02-02T13:05:04.651Z,110.53
2023-02-02T13:07:44.989Z,121.57
2023-02-02T13:10:31.975Z,118.77
2023-02-02T13:13:18.041Z,114.50
2023-02-02T13:15:58.984Z,125.50
2023-02-02T13:18:47.530Z,127.73
2023-02-02T13:21:30.099Z,112.73
2023-02-02T13:24:18.054Z,127.33
2023-02-02T13:27:07.348Z,117.57
2023-02-02T13:30:00.180Z,115.23
2023-02-02T13:32:39.415Z,119.70
2023-02-02T13:35:25.859Z,114.90
2023-02-02T13:38:12.320Z,124.60
2023-02-02T13:41:04.768Z,111.57
2023-02-02T13:44:02.844Z,115.87
2023-02-02T13:46:48.218Z,116.07
2023-02-02T13:49:29.594Z,107.93
2023-02-02T13:52:19.517Z,110.73
2023-02-02T13:55:43.077Z,111.50
2023-02-02T13:58:42.703Z,111.57
2023-02-02T14:01:25.717Z,110.47
2023-02-02T14:04:40.498Z,110.30
2023-02-02T14:07:32.912Z,115.60
2023-02-02T14:10:18.874Z,115.43
2023-02-02T14:13:02.399Z,126.07
2023-02-02T14:15:48.477Z,118.13
2023-02-02T14:19:23.349Z,114.90
2023-02-02T14:22:50.651Z,120.70
2023-02-02T14:26:12.383Z,113.67
2023-02-02T14:29:50.151Z,120.77
2023-02-02T14:33:17.241Z,117.20
2023-02-02T14:36:12.866Z,113.57
2023-02-02T14:39:26.622Z,113.73
2023-02-02T14:42:50.135Z,111.47
2023-02-02T14:45:54.857Z,114.77
2023-02-02T14:48:33.073Z,114.77
2023-02-02T14:51:21.173Z,113.43
2023-02-02T14:54:02.727Z,117.43
2023-02-02T14:57:06.433Z,112.23
2023-02-02T14:59:51.327Z,115.70
2023-02-02T15:02:37.650Z,111.53
2023-02-02T15:05:48.742Z,121.63
2023-02-02T15:08:33.948Z,122.17
2023-02-02T15:11:36.158Z,124.00
2023-02-02T15:14:27.675Z,115.20
2023-02-02T15:17:15.067Z,118.33
2023-02-02T15:19:57.702Z,121.97
2023-02-02T15:22:43.938Z,118.03
2023-02-02T15:25:28.463Z,123.67
2023-02-02T15:28:12.941Z,123.80
2023-02-02T15:31:00.120Z,122.80
2023-02-02T15:33:48.959Z,124.40
2023-02-02T15:36:29.825Z,114.37
2023-02-02T15:39:17.853Z,117.60
2023-02-02T15:42:19.152Z,115.13
2023-02-02T15:44:55.814Z,122.23
2023-02-02T15:47:42.606Z,115.73
2023-02-02T15:50:28.391Z,116.93
2023-02-02T15:53:13.817Z,120.47
2023-02-02T15:55:51.296Z,119.17
2023-02-02T15:58:36.451Z,117.33
2023-02-02T16:01:26.214Z,116.10
2023-02-02T16:04:16.097Z,123.90
2023-02-02T16:06:56.883Z,105.17
2023-02-02T16:09:43.095Z,120.17
2023-02-02T16:12:25.317Z,118.37
2023-02-02T16:15:06.922Z,115.03
2023-02-02T16:17:45.584Z,129.60
2023-02-02T16:20:23.067Z,129.30
2023-02-02T16:23:12.925Z,119.87
2023-02-02T16:25:54.826Z,119.30
2023-02-02T16:28:33.148Z,117.77
2023-02-02T16:31:27.251Z,122.97
2023-02-02T16:34:04.209Z,119.93
2023-02-02T16:36:42.039Z,120.33
2023-02-02T16:39:30.364Z,120.73
2023-02-02T16:42:33.074Z,120.90
2023-02-02T16:45:10.672Z,110.83
2023-02-02T16:47:54.406Z,116.83
2023-02-02T16:50:36.624Z,121.07
2023-02-02T16:53:25.764Z,123.60
2023-02-02T16:56:06.941Z,131.20
2023-02-02T16:58:49.352Z,129.43
2023-02-02T17:01:26.495Z,128.13
2023-02-02T17:04:10.505Z,132.53
2023-02-02T17:06:52.859Z,116.87
2023-02-02T17:09:39.178Z,127.47
2023-02-02T17:12:34.208Z,133.07
2023-02-02T17:15:37.580Z,135.53
2023-02-02T17:18:14.405Z,128.53
2023-02-02T17:20:59.006Z,123.83
2023-02-02T17:23:37.697Z,122.67
2023-02-02T17:26:14.913Z,123.67
2023-02-02T17:29:01.649Z,130.53
2023-02-02T17:31:39.244Z,132.23
2023-02-02T17:34:18.776Z,141.80
2023-02-02T17:36:55.594Z,118.53
2023-02-02T17:39:33.067Z,130.97
2023-02-02T17:42:11.436Z,126.63
2023-02-02T17:44:48.896Z,134.80
2023-02-02T17:47:25.905Z,144.87
2023-02-02T17:50:03.253Z,136.87
2023-02-02T17:52:40.516Z,146.10
2023-02-02T17:55:24.782Z,136.73
2023-02-02T17:58:03.160Z,137.20
2023-02-02T18:00:43.468Z,138.20
2023-02-02T18:03:25.051Z,138.73
2023-02-02T18:06:03.225Z,156.93
2023-02-02T18:08:43.316Z,146.67
2023-02-02T18:11:21.972Z,152.27
2023-02-02T18:13:57.539Z,154.97
2023-02-02T18:16:35.940Z,156.53
2023-02-02T18:19:11.781Z,159.80
2023-02-02T18:21:50.340Z,149.37
2023-02-02T18:24:30.676Z,165.10
2023-02-02T18:27:06.493Z,178.67
2023-02-02T18:29:42.161Z,162.27
2023-02-02T18:32:22.499Z,166.33
2023-02-02T18:34:58.241Z,176.50
2023-02-02T18:37:34.221Z,176.53
2023-02-02T18:40:10.676Z,168.07
2023-02-02T18:42:46.748Z,170.20
2023-02-02T18:45:23.450Z,173.87
2023-02-02T18:48:01.946Z,176.87
2023-02-02T18:50:37.870Z,195.10
2023-02-02T18:53:13.983Z,175.57
2023-02-02T18:55:49.972Z,194.43
2023-02-02T18:58:27.887Z,189.77
2023-02-02T19:01:12.393Z,199.30
2023-02-02T19:03:53.586Z,187.57
2023-02-02T19:06:45.929Z,194.67
2023-02-02T19:09:22.684Z,186.33
2023-02-02T19:11:58.713Z,196.23
2023-02-02T19:14:39.936Z,193.27
2023-02-02T19:17:25.819Z,193.23
2023-02-02T19:20:07.736Z,203.27
2023-02-02T19:22:43.928Z,189.10
2023-02-02T19:25:19.254Z,187.87
2023-02-02T19:27:54.843Z,191.40
2023-02-02T19:30:30.863Z,184.83
2023-02-02T19:33:13.781Z,193.80
2023-02-02T19:35:54.874Z,196.80
2023-02-02T19:38:34.624Z,200.77
2023-02-02T19:41:23.135Z,195.47
2023-02-02T19:44:03.479Z,191.20
2023-02-02T19:46:44.535Z,207.97
2023-02-02T19:49:23.407Z,194.07
2023-02-02T19:52:02.652Z,205.00
2023-02-02T19:54:41.411Z,200.23
2023-02-02T19:57:24.709Z,207.57
2023-02-02T20:00:02.230Z,208.30
2023-02-02T20:02:53.558Z,202.23
2023-02-02T20:05:30.754Z,194.17
2023-02-02T20:08:18.544Z,206.93
2023-02-02T20:10:53.138Z,216.10
2023-02-02T20:13:29.462Z,198.57
2023-02-02T20:16:04.742Z,198.23
2023-02-02T20:18:46.695Z,206.97
2023-02-02T20:21:30.774Z,213.07
2023-02-02T20:24:11.593Z,199.57
2023-02-02T20:26:46.943Z,201.47
2023-02-02T20:29:25.823Z,197.43
2023-02-02T20:32:03.049Z,215.27
2023-02-02T20:34:40.994Z,209.30
2023-02-02T20:37:25.428Z,207.10
2023-02-02T20:40:04.790Z,226.37
2023-02-02T20:42:39.991Z,211.53
2023-02-02T20:45:13.818Z,210.47
2023-02-02T20:47:47.855Z,227.53
2023-02-02T20:50:22.849Z,225.13
2023-02-02T20:53:00.541Z,225.43
2023-02-02T20:55:38.345Z,223.43
2023-02-02T20:58:12.620Z,231.13
2023-02-02T21:00:47.101Z,224.50
2023-02-02T21:03:21.863Z,233.00
2023-02-02T21:05:55.933Z,216.03
2023-02-02T21:08:31.238Z,228.80
2023-02-02T21:11:08.089Z,226.00
2023-02-02T21:13:47.094Z,222.00
2023-02-02T21:16:23.358Z,221.90
2023-02-02T21:19:00.110Z,212.70
2023-02-02T21:21:36.899Z,220.27
2023-02-02T21:24:10.949Z,224.27
2023-02-02T21:26:52.120Z,231.37
2023-02-02T21:29:27.083Z,229.53
2023-02-02T21:32:03.816Z,219.23
2023-02-02T21:34:39.291Z,219.03
2023-02-02T21:37:18.016Z,221.47
2023-02-02T21:39:52.770Z,212.50
2023-02-02T21:42:30.024Z,228.67
2023-02-02T21:45:11.665Z,224.20
2023-02-02T21:47:50.586Z,221.33
2023-02-02T21:50:28.434Z,210.07
2023-02-02T21:53:18.454Z,218.97
2023-02-02T21:55:55.570Z,209.83
2023-02-02T21:58:39.640Z,205.23
2023-02-02T22:01:25.567Z,212.00
2023-02-02T22:03:59.918Z,205.97
2023-02-02T22:06:36.227Z,193.93
2023-02-02T22:09:23.423Z,189.83
2023-02-02T22:12:02.770Z,199.60
2023-02-02T22:14:43.325Z,196.40
2023-02-02T22:17:27.238Z,203.03
2023-02-02T22:20:04.242Z,183.87
2023-02-02T22:22:41.006Z,192.17
2023-02-02T22:25:36.953Z,195.47
2023-02-02T22:28:23.433Z,189.33
2023-02-02T22:31:02.128Z,190.20
2023-02-02T22:33:36.480Z,182.80
2023-02-02T22:36:12.410Z,181.67
2023-02-02T22:38:46.284Z,193.10
2023-02-02T22:41:20.699Z,177.23
2023-02-02T22:43:54.610Z,185.00
2023-02-02T22:46:31.915Z,187.83
2023-02-02T22:49:06.319Z,183.83
2023-02-02T22:51:41.077Z,182.67
2023-02-02T22:54:16.852Z,190.03
2023-02-02T22:56:52.244Z,191.67
2023-02-02T22:59:27.066Z,186.17
2023-02-02T23:02:05.356Z,193.47
2023-02-02T23:04:40.535Z,186.67
2023-02-02T23:07:15.589Z,193.40
2023-02-02T23:09:50.881Z,180.60
2023-02-02T23:12:25.913Z,191.10
2023-02-02T23:15:01.074Z,180.40
2023-02-02T23:17:38.763Z,188.33
2023-02-02T23:20:16.796Z,182.90
2023-02-02T23:22:52.040Z,186.80
2023-02-02T23:25:27.616Z,184.70
2023-02-02T23:28:02.739Z,191.63
2023-02-02T23:30:38.778Z,206.17
2023-02-02T23:33:17.019Z,208.33
2023-02-02T23:35:54.108Z,228.07
2023-02-02T23:38:29.933Z,225.73
2023-02-02T23:41:06.804Z,238.23
2023-02-02T23:43:44.049Z,224.90
2023-02-02T23:46:19.670Z,219.53
2023-02-02T23:48:58.684Z,225.27
2023-02-02T23:51:36.225Z,231.93
2023-02-02T23:54:11.802Z,241.10
2023-02-02T23:56:48.626Z,247.07
2023-02-02T23:59:24.776Z,254.80
